Tampa International Airport

Airport
ICAO code: 
KTPA
Summary
ICAO Region: 
NAM
Territory: 
Location: 
Tampa, Florida,
Coordinates: 
Aerial View: 
27° 58' 36.808" N, 82° 32' 0.157" W
Metar
Observation
KTPA 020953Z 02003KT 10SM FEW050 16/11 A3012 RMK AO2 SLP200 T01610106
Station
Tampa, Tampa International Airport
Date/Time
2021-12-02 09:53:00
Wind direction
20°
Wind speed
03 kts
Lowest cloud amount
few clouds
Temperature
16.1°C
Dew point
10.6°C
Humidity
69%
Weather condition
n/a

Description

International airport 6 nm west of Tampa, Florida, USA.

Climatology

Humid “subtropical” climate (Köppen climate classification Cfa) - characterized by hot, humid summers and cool winters. Significant amounts of precipitation occur in all seasons in most areas.

Runways

Designator Length Width Surface Rops
9/27 2133 46 PEM Yes/Yes
18L/36R 2530 46 PEM Yes/Yes
18R/36L 3353 46 CON Yes/Yes
Airport map: 
Aerial View: 

SKYbrary Partners:

Safety knowledge contributed by: